Wetterdaten: Woche 13.12.04 - 19.12.04 (KW51)
Datum Zeit Temperatur Luftfeuchte Luftdruck Niederschlag Windrichtung Taupunkt Windchill Wind
13.12.2004 00:00 -4,2 C 100 % 1028 hPa 0,0 l/m N -4,2 C -4,2 C 0,0 km/h (0 Bft)
13.12.2004 01:00 -4,1 C 100 % 1028 hPa 0,0 l/m N -4,1 C -4,1 C 0,0 km/h (0 Bft)
13.12.2004 02:00 -4,0 C 100 % 1028 hPa 0,0 l/m N -4,0 C -4,0 C 0,0 km/h (0 Bft)
13.12.2004 03:00 -3,9 C 100 % 1028 hPa 0,0 l/m N -3,9 C -3,9 C 0,1 km/h (0 Bft)
13.12.2004 04:00 -3,7 C 100 % 1028 hPa 0,0 l/m S-SW -3,7 C -3,7 C 0,7 km/h (0 Bft)
13.12.2004 05:00 -3,7 C 100 % 1028 hPa 0,0 l/m S-SO -3,7 C -3,7 C 1,7 km/h (1 Bft)
13.12.2004 06:00 -3,6 C 100 % 1028 hPa 0,0 l/m S-SO -3,6 C -3,6 C 0,7 km/h (0 Bft)
13.12.2004 07:00 -3,4 C 100 % 1028 hPa 0,0 l/m S-SO -3,4 C -3,4 C 1,0 km/h (0 Bft)
13.12.2004 08:00 -3,3 C 100 % 1029 hPa 0,0 l/m S-SO -3,3 C -3,3 C 3,9 km/h (1 Bft)
13.12.2004 09:00 -3,1 C 100 % 1029 hPa 0,0 l/m S-SO -3,1 C -3,1 C 4,3 km/h (1 Bft)
13.12.2004 10:00 -2,5 C 100 % 1029 hPa 0,0 l/m SO -2,5 C -2,5 C 2,9 km/h (1 Bft)
13.12.2004 11:00 -1,9 C 100 % 1029 hPa 0,0 l/m SO -1,9 C -1,9 C 4,1 km/h (1 Bft)
13.12.2004 12:00 -1,3 C 100 % 1029 hPa 0,0 l/m SO -1,3 C -1,3 C 4,0 km/h (1 Bft)
13.12.2004 13:00 -1,0 C 100 % 1028 hPa 0,0 l/m S-SO -1,0 C -1,1 C 5,0 km/h (1 Bft)
13.12.2004 14:00 -1,0 C 100 % 1028 hPa 0,0 l/m S-SO -1,0 C -1,0 C 1,4 km/h (1 Bft)
13.12.2004 15:00 -1,2 C 100 % 1028 hPa 0,0 l/m N -1,2 C -1,2 C 0,6 km/h (0 Bft)
13.12.2004 16:00 -1,5 C 100 % 1028 hPa 0,0 l/m S-SO -1,5 C -1,5 C 1,0 km/h (0 Bft)
13.12.2004 17:00 -2,0 C 100 % 1028 hPa 0,0 l/m N -2,0 C -2,0 C 0,3 km/h (0 Bft)
13.12.2004 18:00 -2,3 C 100 % 1029 hPa 0,0 l/m S-SO -2,3 C -2,3 C 1,2 km/h (1 Bft)
13.12.2004 19:00 -2,7 C 100 % 1029 hPa 0,0 l/m SO -2,7 C -2,7 C 2,7 km/h (1 Bft)
13.12.2004 20:00 -3,2 C 100 % 1029 hPa 0,0 l/m N -3,2 C -3,2 C 0,1 km/h (0 Bft)
13.12.2004 21:00 -3,5 C 100 % 1029 hPa 0,0 l/m N -3,5 C -3,5 C 0,9 km/h (0 Bft)
13.12.2004 22:00 -3,8 C 100 % 1029 hPa 0,0 l/m SO -3,8 C -3,8 C 4,4 km/h (1 Bft)
13.12.2004 23:00 -3,9 C 100 % 1029 hPa 0,0 l/m S-SO -3,9 C -3,9 C 2,5 km/h (1 Bft)
14.12.2004 00:00 -4,1 C 100 % 1029 hPa 0,0 l/m N -4,1 C -4,1 C 2,3 km/h (1 Bft)
14.12.2004 01:00 -4,0 C 100 % 1029 hPa 0,0 l/m S-SO -4,0 C -4,0 C 4,6 km/h (1 Bft)
14.12.2004 02:00 -3,8 C 100 % 1029 hPa 0,0 l/m S-SO -3,8 C -3,8 C 4,9 km/h (1 Bft)
14.12.2004 03:00 -3,6 C 100 % 1029 hPa 0,0 l/m S-SO -3,6 C -3,6 C 2,4 km/h (1 Bft)
14.12.2004 04:00 -3,6 C 100 % 1029 hPa 0,0 l/m S-SO -3,6 C -3,6 C 2,7 km/h (1 Bft)
14.12.2004 05:00 -3,4 C 100 % 1029 hPa 0,0 l/m S-SO -3,4 C -3,4 C 3,9 km/h (1 Bft)
14.12.2004 06:00 -3,5 C 100 % 1029 hPa 0,0 l/m S-SO -3,5 C -3,5 C 2,2 km/h (1 Bft)
14.12.2004 07:00 -3,6 C 100 % 1029 hPa 0,0 l/m N -3,6 C -3,6 C 2,6 km/h (1 Bft)
14.12.2004 08:00 -3,6 C 100 % 1029 hPa 0,0 l/m S-SO -3,6 C -3,6 C 4,0 km/h (1 Bft)
14.12.2004 09:00 -3,5 C 100 % 1029 hPa 0,0 l/m SO -3,5 C -3,5 C 3,0 km/h (1 Bft)
14.12.2004 10:00 -2,9 C 100 % 1030 hPa 0,0 l/m SO -2,9 C -2,9 C 2,2 km/h (1 Bft)
14.12.2004 11:00 -2,4 C 100 % 1029 hPa 0,0 l/m O-SO -2,4 C -2,4 C 2,1 km/h (1 Bft)
14.12.2004 12:00 -1,8 C 100 % 1029 hPa 0,0 l/m SO -1,8 C -1,8 C 1,8 km/h (1 Bft)
14.12.2004 13:00 -1,9 C 100 % 1029 hPa 0,0 l/m O -1,9 C -1,9 C 3,9 km/h (1 Bft)
14.12.2004 14:00 -1,8 C 100 % 1028 hPa 0,0 l/m N -1,8 C -1,8 C 0,7 km/h (0 Bft)
14.12.2004 15:00 -2,0 C 100 % 1028 hPa 0,0 l/m N -2,0 C -2,0 C 0,3 km/h (0 Bft)
14.12.2004 16:00 -2,6 C 100 % 1028 hPa 0,0 l/m N -2,6 C -2,6 C 0,0 km/h (0 Bft)
14.12.2004 17:00 -3,0 C 100 % 1028 hPa 0,0 l/m N -3,0 C -3,0 C 0,0 km/h (0 Bft)
14.12.2004 18:00 -3,4 C 100 % 1028 hPa 0,0 l/m N -3,4 C -3,4 C 0,0 km/h (0 Bft)
14.12.2004 19:00 -3,8 C 100 % 1028 hPa 0,0 l/m N -3,8 C -3,8 C 0,6 km/h (0 Bft)
14.12.2004 20:00 -4,1 C 100 % 1028 hPa 0,0 l/m N -4,1 C -4,1 C 0,8 km/h (0 Bft)
14.12.2004 21:00 -4,2 C 100 % 1028 hPa 0,0 l/m N -4,2 C -4,2 C 0,1 km/h (0 Bft)
14.12.2004 22:00 -4,6 C 100 % 1028 hPa 0,0 l/m N -4,6 C -4,6 C 0,0 km/h (0 Bft)
14.12.2004 23:00 -5,1 C 100 % 1028 hPa 0,0 l/m N -5,1 C -5,1 C 0,0 km/h (0 Bft)
15.12.2004 00:00 -5,2 C 100 % 1027 hPa 0,0 l/m N -5,2 C -5,2 C 0,0 km/h (0 Bft)
15.12.2004 01:00 -5,8 C 100 % 1027 hPa 0,0 l/m N -5,8 C -5,8 C 0,0 km/h (0 Bft)
15.12.2004 02:00 -6,3 C 100 % 1026 hPa 0,0 l/m N -6,3 C -6,3 C 0,0 km/h (0 Bft)
15.12.2004 03:00 -6,6 C 100 % 1026 hPa 0,0 l/m N -6,6 C -6,6 C 0,0 km/h (0 Bft)
15.12.2004 04:00 -7,0 C 100 % 1026 hPa 0,0 l/m N -7,0 C -7,0 C 0,0 km/h (0 Bft)
15.12.2004 05:00 -7,0 C 100 % 1026 hPa 0,0 l/m N -7,0 C -7,0 C 0,0 km/h (0 Bft)
15.12.2004 06:00 -6,8 C 100 % 1026 hPa 0,0 l/m S-SO -6,8 C -6,8 C 1,6 km/h (1 Bft)
15.12.2004 07:00 -5,6 C 100 % 1026 hPa 0,0 l/m N -5,6 C -5,6 C 2,7 km/h (1 Bft)
15.12.2004 08:00 -4,6 C 100 % 1026 hPa 0,0 l/m N -4,6 C -4,6 C 2,0 km/h (1 Bft)
15.12.2004 09:00 -4,0 C 100 % 1026 hPa 0,0 l/m N -4,0 C -4,0 C 1,5 km/h (1 Bft)
15.12.2004 10:00 -3,4 C 100 % 1026 hPa 0,0 l/m N -3,4 C -3,4 C 0,1 km/h (0 Bft)
15.12.2004 11:00 -2,7 C 100 % 1026 hPa 0,0 l/m S-SO -2,7 C -2,7 C 1,4 km/h (1 Bft)
15.12.2004 12:00 -2,4 C 100 % 1026 hPa 0,0 l/m SO -2,4 C -2,4 C 2,3 km/h (1 Bft)
15.12.2004 13:00 -2,1 C 100 % 1025 hPa 0,0 l/m N -2,1 C -2,1 C 2,3 km/h (1 Bft)
15.12.2004 14:00 -1,9 C 100 % 1025 hPa 0,0 l/m N -1,9 C -1,9 C 2,2 km/h (1 Bft)
15.12.2004 15:00 -2,2 C 100 % 1024 hPa 0,0 l/m N -2,2 C -2,2 C 2,5 km/h (1 Bft)
15.12.2004 16:00 -2,6 C 100 % 1024 hPa 0,0 l/m N -2,6 C -2,6 C 2,1 km/h (1 Bft)
15.12.2004 17:00 -2,9 C 100 % 1024 hPa 0,0 l/m N -2,9 C -2,9 C 2,2 km/h (1 Bft)
15.12.2004 18:00 -3,4 C 100 % 1024 hPa 0,0 l/m N -3,4 C -3,4 C 1,1 km/h (0 Bft)
15.12.2004 19:00 -3,8 C 100 % 1024 hPa 0,0 l/m N -3,8 C -3,8 C 0,6 km/h (0 Bft)
15.12.2004 20:00 -4,1 C 100 % 1025 hPa 0,0 l/m O -4,1 C -4,1 C 0,8 km/h (0 Bft)
15.12.2004 21:00 -4,4 C 100 % 1024 hPa 0,0 l/m N -4,4 C -4,4 C 0,7 km/h (0 Bft)
15.12.2004 22:00 -4,6 C 100 % 1024 hPa 0,0 l/m N -4,6 C -4,6 C 0,5 km/h (0 Bft)
15.12.2004 23:00 -4,7 C 100 % 1024 hPa 0,0 l/m N -4,7 C -4,7 C 0,3 km/h (0 Bft)
16.12.2004 00:00 -4,8 C 100 % 1024 hPa 0,0 l/m N -4,8 C -4,8 C 0,0 km/h (0 Bft)
16.12.2004 01:00 -5,0 C 100 % 1023 hPa 0,0 l/m N -5,0 C -5,0 C 0,0 km/h (0 Bft)
16.12.2004 02:00 -5,3 C 100 % 1023 hPa 0,0 l/m N -5,3 C -5,3 C 0,0 km/h (0 Bft)
16.12.2004 03:00 -5,7 C 100 % 1023 hPa 0,0 l/m N -5,7 C -5,7 C 0,3 km/h (0 Bft)
16.12.2004 04:00 -5,6 C 100 % 1022 hPa 0,0 l/m N -5,6 C -5,6 C 0,4 km/h (0 Bft)
16.12.2004 05:00 -5,5 C 100 % 1021 hPa 0,0 l/m N -5,5 C -5,5 C 0,4 km/h (0 Bft)
16.12.2004 06:00 -5,6 C 100 % 1021 hPa 0,0 l/m N -5,6 C -5,6 C 0,3 km/h (0 Bft)
16.12.2004 07:00 -5,5 C 100 % 1020 hPa 0,0 l/m N -5,5 C -5,5 C 0,3 km/h (0 Bft)
16.12.2004 08:00 -5,2 C 100 % 1020 hPa 0,0 l/m N -5,2 C -5,2 C 0,1 km/h (0 Bft)
16.12.2004 09:00 -4,5 C 100 % 1020 hPa 0,0 l/m N -4,5 C -4,5 C 0,7 km/h (0 Bft)
16.12.2004 10:00 -3,7 C 100 % 1019 hPa 0,0 l/m N -3,7 C -3,7 C 1,5 km/h (1 Bft)
16.12.2004 11:00 -2,9 C 100 % 1019 hPa 0,0 l/m N -2,9 C -2,9 C 1,5 km/h (1 Bft)
16.12.2004 12:00 -1,9 C 100 % 1017 hPa 0,0 l/m N -1,9 C -1,9 C 1,2 km/h (1 Bft)
16.12.2004 13:00 -1,2 C 100 % 1016 hPa 0,0 l/m S -1,2 C -1,2 C 1,6 km/h (1 Bft)
16.12.2004 14:00 -1,6 C 100 % 1015 hPa 0,0 l/m N -1,6 C -1,6 C 0,9 km/h (0 Bft)
16.12.2004 15:00 -2,1 C 100 % 1014 hPa 0,0 l/m N -2,1 C -2,1 C 0,7 km/h (0 Bft)
16.12.2004 16:00 -2,6 C 100 % 1014 hPa 0,0 l/m SO -2,6 C -2,6 C 2,0 km/h (1 Bft)
16.12.2004 17:00 -2,7 C 100 % 1013 hPa 0,0 l/m N -2,7 C -2,7 C 1,9 km/h (1 Bft)
16.12.2004 18:00 -2,7 C 100 % 1013 hPa 0,0 l/m O-SO -2,7 C -2,7 C 2,9 km/h (1 Bft)
16.12.2004 19:00 -2,7 C 100 % 1012 hPa 0,0 l/m N -2,7 C -2,7 C 1,7 km/h (1 Bft)
16.12.2004 20:00 -2,2 C 100 % 1010 hPa 0,0 l/m N -2,2 C -2,2 C 1,8 km/h (1 Bft)
16.12.2004 21:00 -2,0 C 100 % 1010 hPa 0,0 l/m N -2,0 C -2,0 C 0,1 km/h (0 Bft)
16.12.2004 22:00 -2,1 C 100 % 1009 hPa 0,0 l/m N -2,1 C -2,1 C 0,0 km/h (0 Bft)
16.12.2004 23:00 -2,1 C 100 % 1009 hPa 0,0 l/m N -2,1 C -2,1 C 0,1 km/h (0 Bft)
17.12.2004 00:00 -0,9 C 100 % 1009 hPa 0,0 l/m N -0,9 C -0,9 C 2,4 km/h (1 Bft)
17.12.2004 01:00 1,0 C 100 % 1009 hPa 0,0 l/m S 1,0 C -2,6 C 11,0 km/h (2 Bft)
17.12.2004 02:00 2,8 C 100 % 1009 hPa 0,0 l/m S 2,8 C -3,6 C 16,9 km/h (3 Bft)
17.12.2004 03:00 3,1 C 100 % 1009 hPa 0,0 l/m S 3,1 C -3,6 C 18,0 km/h (3 Bft)
17.12.2004 04:00 3,5 C 100 % 1009 hPa 0,0 l/m S 3,5 C -3,3 C 18,5 km/h (3 Bft)
17.12.2004 05:00 3,6 C 97 % 1010 hPa 0,0 l/m S 3,2 C -2,3 C 16,4 km/h (3 Bft)
17.12.2004 06:00 3,1 C 97 % 1010 hPa 0,0 l/m S 2,7 C -3,2 C 17,0 km/h (3 Bft)
17.12.2004 07:00 3,4 C 95 % 1009 hPa 0,0 l/m S 2,6 C -2,9 C 17,0 km/h (3 Bft)
17.12.2004 08:00 3,6 C 91 % 1009 hPa 0,0 l/m S 2,2 C -2,9 C 17,1 km/h (3 Bft)
17.12.2004 09:00 4,1 C 88 % 1009 hPa 0,0 l/m S-SW 2,2 C -2,7 C 19,3 km/h (3 Bft)
17.12.2004 10:00 4,5 C 82 % 1009 hPa 0,0 l/m S 1,8 C -2,3 C 19,1 km/h (3 Bft)
17.12.2004 11:00 4,7 C 79 % 1009 hPa 0,0 l/m S-SO 1,4 C -1,5 C 18,6 km/h (3 Bft)
17.12.2004 12:00 4,8 C 77 % 1007 hPa 0,0 l/m S 1,1 C -2,3 C 19,3 km/h (3 Bft)
17.12.2004 13:00 4,9 C 74 % 1005 hPa 0,0 l/m S 0,7 C -2,0 C 19,7 km/h (3 Bft)
17.12.2004 14:00 5,0 C 72 % 1004 hPa 0,0 l/m S-SO 0,3 C -2,5 C 20,7 km/h (4 Bft)
17.12.2004 15:00 4,8 C 70 % 1002 hPa 0,0 l/m S -0,2 C -3,0 C 21,4 km/h (4 Bft)
17.12.2004 16:00 4,5 C 72 % 1000 hPa 0,0 l/m S -0,1 C -3,5 C 23,3 km/h (4 Bft)
17.12.2004 17:00 3,8 C 79 % 998 hPa 0,0 l/m S 0,5 C -5,7 C 25,8 km/h (4 Bft)
17.12.2004 18:00 4,0 C 80 % 997 hPa 1,0 l/m S-SO 0,9 C -4,7 C 24,7 km/h (4 Bft)
17.12.2004 19:00 3,7 C 89 % 995 hPa 0,0 l/m S-SO 2,0 C -6,0 C 25,7 km/h (4 Bft)
17.12.2004 20:00 3,9 C 89 % 995 hPa 0,0 l/m S 2,2 C -6,8 C 29,6 km/h (5 Bft)
17.12.2004 21:00 4,0 C 88 % 994 hPa 0,0 l/m S-SO 2,3 C -6,1 C 30,7 km/h (5 Bft)
17.12.2004 22:00 4,1 C 88 % 994 hPa 1,0 l/m S-SO 2,3 C -6,9 C 33,5 km/h (5 Bft)
17.12.2004 23:00 3,7 C 89 % 995 hPa 1,0 l/m S-SO 2,1 C -6,6 C 31,4 km/h (5 Bft)
18.12.2004 00:00 2,6 C 94 % 997 hPa 2,0 l/m S-SO 1,8 C -7,4 C 27,4 km/h (4 Bft)
18.12.2004 01:00 2,4 C 96 % 999 hPa 2,0 l/m S 1,8 C -8,0 C 29,6 km/h (5 Bft)
18.12.2004 02:00 2,3 C 93 % 1001 hPa 0,0 l/m S 1,2 C -7,9 C 29,3 km/h (5 Bft)
18.12.2004 03:00 1,6 C 90 % 1003 hPa 0,0 l/m S-SO 0,1 C -9,4 C 30,3 km/h (5 Bft)
18.12.2004 04:00 1,3 C 87 % 1005 hPa 0,0 l/m S-SO -0,6 C -8,0 C 24,3 km/h (4 Bft)
18.12.2004 05:00 0,8 C 87 % 1007 hPa 0,0 l/m S-SO -1,0 C -7,1 C 21,2 km/h (4 Bft)
18.12.2004 06:00 0,6 C 86 % 1009 hPa 0,0 l/m S-SO -1,5 C -7,4 C 20,4 km/h (4 Bft)
18.12.2004 07:00 0,3 C 90 % 1010 hPa 0,0 l/m S-SO -1,1 C -7,3 C 19,0 km/h (3 Bft)
18.12.2004 08:00 0,3 C 91 % 1010 hPa 0,0 l/m SO -1,1 C -3,3 C 11,3 km/h (2 Bft)
18.12.2004 11:00 1,6 C 85 % 1013 hPa 0,0 l/m S-SW -0,6 C -3,6 C 12,9 km/h (3 Bft)
18.12.2004 12:00 1,9 C 80 % 1013 hPa 0,0 l/m S -1,1 C -4,4 C 16,9 km/h (3 Bft)
18.12.2004 13:00 2,2 C 75 % 1013 hPa 0,0 l/m S-SO -1,7 C -2,9 C 15,0 km/h (3 Bft)
18.12.2004 14:00 2,9 C 61 % 1013 hPa 0,0 l/m S -3,8 C -3,6 C 17,7 km/h (3 Bft)
18.12.2004 15:00 1,8 C 64 % 1013 hPa 0,0 l/m S -4,3 C -4,0 C 16,0 km/h (3 Bft)
18.12.2004 16:00 1,0 C 66 % 1013 hPa 0,0 l/m S -4,6 C -4,2 C 13,7 km/h (3 Bft)
18.12.2004 17:00 0,5 C 73 % 1013 hPa 0,0 l/m S -3,8 C -5,7 C 16,0 km/h (3 Bft)
18.12.2004 18:00 0,1 C 70 % 1013 hPa 0,0 l/m S -4,7 C -6,2 C 15,7 km/h (3 Bft)
18.12.2004 19:00 -0,4 C 75 % 1013 hPa 0,0 l/m S -4,3 C -6,4 C 14,8 km/h (3 Bft)
18.12.2004 20:00 -0,4 C 76 % 1013 hPa 0,0 l/m S -4,2 C -9,5 C 22,0 km/h (4 Bft)
18.12.2004 21:00 0,7 C 68 % 1012 hPa 0,0 l/m S-SO -4,6 C -8,4 C 21,9 km/h (4 Bft)
18.12.2004 22:00 1,1 C 64 % 1011 hPa 0,0 l/m S-SO -5,0 C -8,4 C 24,1 km/h (4 Bft)
18.12.2004 23:00 1,1 C 60 % 1010 hPa 0,0 l/m SO -5,9 C -7,7 C 21,6 km/h (4 Bft)
19.12.2004 00:00 1,1 C 54 % 1010 hPa 0,0 l/m SO -7,1 C -4,7 C 15,3 km/h (3 Bft)
19.12.2004 01:00 0,8 C 56 % 1008 hPa 0,0 l/m SO -6,9 C -2,1 C 10,7 km/h (2 Bft)
19.12.2004 02:00 0,8 C 56 % 1007 hPa 0,0 l/m SO -6,9 C -2,6 C 11,7 km/h (2 Bft)
19.12.2004 03:00 1,1 C 55 % 1006 hPa 0,0 l/m S-SO -7,0 C -2,0 C 11,3 km/h (2 Bft)
19.12.2004 04:00 1,0 C 57 % 1005 hPa 0,0 l/m SO -6,5 C -3,9 C 13,7 km/h (3 Bft)
19.12.2004 05:00 0,2 C 79 % 1004 hPa 0,0 l/m SO -2,9 C -4,4 C 13,1 km/h (3 Bft)
19.12.2004 06:00 -0,7 C 92 % 1003 hPa 0,0 l/m O-SO -1,9 C -3,7 C 11,2 km/h (2 Bft)
19.12.2004 07:00 -1,0 C 98 % 1002 hPa 0,0 l/m O-SO -1,3 C -2,6 C 8,5 km/h (2 Bft)
19.12.2004 08:00 -0,9 C 99 % 1001 hPa 0,0 l/m O-SO -0,9 C -1,6 C 5,2 km/h (1 Bft)
19.12.2004 09:00 -0,5 C 100 % 1001 hPa 0,0 l/m N -0,5 C -0,5 C 0,0 km/h (0 Bft)
19.12.2004 10:00 -0,2 C 100 % 1001 hPa 0,0 l/m N -0,2 C -0,2 C 0,0 km/h (0 Bft)
19.12.2004 11:00 0,4 C 100 % 1001 hPa 0,0 l/m N 0,4 C 0,4 C 0,0 km/h (0 Bft)
19.12.2004 12:00 0,5 C 100 % 1001 hPa 0,0 l/m N 0,5 C 0,5 C 0,0 km/h (0 Bft)
19.12.2004 13:00 0,7 C 99 % 1001 hPa 0,0 l/m N 0,6 C 0,7 C 0,0 km/h (0 Bft)
19.12.2004 14:00 0,3 C 98 % 1002 hPa 0,0 l/m N 0,1 C 0,3 C 0,0 km/h (0 Bft)
19.12.2004 15:00 0,1 C 99 % 1003 hPa 0,0 l/m N -0,1 C 0,1 C 0,0 km/h (0 Bft)
19.12.2004 16:00 -0,1 C 99 % 1004 hPa 0,0 l/m N -0,2 C -0,1 C 0,0 km/h (0 Bft)
19.12.2004 17:00 -0,2 C 99 % 1005 hPa 0,0 l/m N -0,3 C -0,2 C 0,0 km/h (0 Bft)
19.12.2004 18:00 -0,3 C 98 % 1007 hPa 0,0 l/m N -0,6 C -0,3 C 0,0 km/h (0 Bft)
19.12.2004 19:00 -0,6 C 94 % 1008 hPa 0,0 l/m N -1,4 C -0,6 C 0,0 km/h (0 Bft)
19.12.2004 20:00 -1,2 C 93 % 1010 hPa 0,0 l/m N -2,2 C -1,2 C 0,0 km/h (0 Bft)
19.12.2004 21:00 -1,8 C 92 % 1011 hPa 0,0 l/m N -2,9 C -1,8 C 0,0 km/h (0 Bft)
19.12.2004 22:00 -2,8 C 89 % 1012 hPa 0,0 l/m N -4,3 C -2,8 C 0,0 km/h (0 Bft)
19.12.2004 23:00 -3,9 C 89 % 1013 hPa 0,0 l/m N -5,4 C -3,9 C 0,0 km/h (0 Bft)
Min-Datum _ 15.12.04 19.12.04 17.12.04 - - 15.12.04 18.12.04 13.12.04
_ Min-Zeit 04:23 00:08 21:00 - - 04:23 03:37 00:00
Minimum _ -7,2 C 54 % 994 hPa - - -7,2 C -13,2 C 0,0 km/h (0 Bft)
Max-Datum _ 17.12.04 13.12.04 14.12.04 18.12.04 - 17.12.04 17.12.04 18.12.04
_ Max-Zeit 14:33 00:00 10:27 00:11 - 04:20 12:59 03:56
Maximum _ 5,1 C 100 % 1030 hPa 2,0 l/m - 3,6 C 5,0 C 59,0 km/h
S-SO (7 Bft)
Durchschnitt _ -1,4 C 94 % 1017 hPa #7,0 l/m S -2,4 C -3,6 C 7,1 km/h (2 Bft)

Durchschnitt Minimum Temp.-1,7 C
Durchschnitt Maximum Temp.-1,1 C